sensor_id;sensor_type;location;lat;lon;timestamp;pressure;altitude;pressure_sealevel;temperature;humidity
56928;BME280;60850;52.502;13.426;2024-01-11T00:00:35;102769.56;;;-6.43;100.00
56928;BME280;60850;52.502;13.426;2024-01-11T00:03:24;102764.84;;;-6.48;100.00
56928;BME280;60850;52.502;13.426;2024-01-11T00:05:51;102761.88;;;-6.53;100.00
56928;BME280;60850;52.502;13.426;2024-01-11T00:08:18;102764.59;;;-6.51;100.00
56928;BME280;60850;52.502;13.426;2024-01-11T00:10:45;102761.53;;;-6.57;100.00
56928;BME280;60850;52.502;13.426;2024-01-11T00:13:12;102755.53;;;-6.56;100.00
56928;BME280;60850;52.502;13.426;2024-01-11T00:15:39;102775.66;;;-6.54;100.00
56928;BME280;60850;52.502;13.426;2024-01-11T00:18:06;102768.31;;;-6.59;100.00
56928;BME280;60850;52.502;13.426;2024-01-11T00:20:34;102759.84;;;-6.69;100.00
56928;BME280;60850;52.502;13.426;2024-01-11T00:23:02;102762.28;;;-6.70;100.00
56928;BME280;60850;52.502;13.426;2024-01-11T00:25:28;102743.09;;;-6.84;100.00
56928;BME280;60850;52.502;13.426;2024-01-11T00:27:55;102752.56;;;-6.96;100.00
56928;BME280;60850;52.502;13.426;2024-01-11T00:30:22;102741.63;;;-6.92;100.00
56928;BME280;60850;52.502;13.426;2024-01-11T00:32:50;102739.94;;;-6.92;100.00
56928;BME280;60850;52.502;13.426;2024-01-11T00:35:16;102731.81;;;-6.96;100.00
56928;BME280;60850;52.502;13.426;2024-01-11T00:37:45;102729.56;;;-6.92;100.00
56928;BME280;60850;52.502;13.426;2024-01-11T00:40:12;102723.25;;;-6.95;100.00
56928;BME280;60850;52.502;13.426;2024-01-11T00:42:39;102725.31;;;-6.79;100.00
56928;BME280;60850;52.502;13.426;2024-01-11T00:45:06;102718.88;;;-6.73;100.00
56928;BME280;60850;52.502;13.426;2024-01-11T00:47:33;102695.31;;;-6.87;100.00
56928;BME280;60850;52.502;13.426;2024-01-11T00:50:00;102699.59;;;-6.88;100.00
56928;BME280;60850;52.502;13.426;2024-01-11T00:52:27;102694.53;;;-6.75;100.00
56928;BME280;60850;52.502;13.426;2024-01-11T00:54:55;102702.78;;;-6.69;100.00
56928;BME280;60850;52.502;13.426;2024-01-11T00:57:22;102710.22;;;-6.61;100.00
56928;BME280;60850;52.502;13.426;2024-01-11T00:59:50;102680.19;;;-6.70;100.00
56928;BME280;60850;52.502;13.426;2024-01-11T01:02:19;102689.91;;;-6.67;100.00
56928;BME280;60850;52.502;13.426;2024-01-11T01:04:46;102692.41;;;-6.69;100.00
56928;BME280;60850;52.502;13.426;2024-01-11T01:07:13;102706.84;;;-6.60;100.00
56928;BME280;60850;52.502;13.426;2024-01-11T01:09:40;102683.25;;;-6.87;100.00
56928;BME280;60850;52.502;13.426;2024-01-11T01:12:08;102645.59;;;-6.82;100.00
56928;BME280;60850;52.502;13.426;2024-01-11T01:14:35;102655.63;;;-6.75;100.00
56928;BME280;60850;52.502;13.426;2024-01-11T01:17:02;102663.97;;;-6.67;100.00
56928;BME280;60850;52.502;13.426;2024-01-11T01:19:29;102668.28;;;-6.68;100.00
56928;BME280;60850;52.502;13.426;2024-01-11T01:21:56;102672.41;;;-6.70;100.00
56928;BME280;60850;52.502;13.426;2024-01-11T01:24:23;102663.19;;;-6.78;100.00
56928;BME280;60850;52.502;13.426;2024-01-11T01:26:50;102671.09;;;-6.76;100.00
56928;BME280;60850;52.502;13.426;2024-01-11T01:29:20;102676.38;;;-6.75;100.00
56928;BME280;60850;52.502;13.426;2024-01-11T01:31:47;102682.00;;;-6.80;100.00
56928;BME280;60850;52.502;13.426;2024-01-11T01:34:14;102677.72;;;-6.80;100.00
56928;BME280;60850;52.502;13.426;2024-01-11T01:36:41;102691.94;;;-6.75;100.00
56928;BME280;60850;52.502;13.426;2024-01-11T01:39:08;102689.47;;;-6.61;100.00
56928;BME280;60850;52.502;13.426;2024-01-11T01:41:35;102683.47;;;-6.72;100.00
56928;BME280;60850;52.502;13.426;2024-01-11T01:44:02;102684.16;;;-6.75;100.00
56928;BME280;60850;52.502;13.426;2024-01-11T01:46:30;102672.88;;;-6.64;100.00
56928;BME280;60850;52.502;13.426;2024-01-11T01:49:00;102683.03;;;-6.67;100.00
56928;BME280;60850;52.502;13.426;2024-01-11T01:51:29;102673.00;;;-6.74;100.00
56928;BME280;60850;52.502;13.426;2024-01-11T01:54:02;102679.97;;;-6.73;100.00
56928;BME280;60850;52.502;13.426;2024-01-11T01:56:30;102678.97;;;-6.75;100.00
56928;BME280;60850;52.502;13.426;2024-01-11T01:58:58;102688.91;;;-6.69;100.00
56928;BME280;60850;52.502;13.426;2024-01-11T02:01:25;102694.19;;;-6.79;100.00
56928;BME280;60850;52.502;13.426;2024-01-11T02:03:54;102703.75;;;-6.78;100.00
56928;BME280;60850;52.502;13.426;2024-01-11T02:06:25;102700.28;;;-6.79;100.00
56928;BME280;60850;52.502;13.426;2024-01-11T02:08:52;102701.16;;;-6.78;100.00
56928;BME280;60850;52.502;13.426;2024-01-11T02:11:20;102702.88;;;-6.79;100.00
56928;BME280;60850;52.502;13.426;2024-01-11T02:13:49;102712.91;;;-6.83;100.00
56928;BME280;60850;52.502;13.426;2024-01-11T02:16:16;102716.06;;;-6.76;100.00
56928;BME280;60850;52.502;13.426;2024-01-11T02:18:43;102726.19;;;-6.79;100.00
56928;BME280;60850;52.502;13.426;2024-01-11T02:21:14;102712.19;;;-6.93;100.00
56928;BME280;60850;52.502;13.426;2024-01-11T02:23:43;102710.88;;;-6.87;100.00
56928;BME280;60850;52.502;13.426;2024-01-11T02:26:14;102722.28;;;-6.74;100.00
56928;BME280;60850;52.502;13.426;2024-01-11T02:28:43;102708.16;;;-6.77;100.00
56928;BME280;60850;52.502;13.426;2024-01-11T02:31:10;102716.19;;;-6.63;100.00
56928;BME280;60850;52.502;13.426;2024-01-11T02:33:38;102723.31;;;-6.60;100.00
56928;BME280;60850;52.502;13.426;2024-01-11T02:36:06;102715.41;;;-6.61;100.00
56928;BME280;60850;52.502;13.426;2024-01-11T02:38:34;102720.03;;;-6.57;100.00
56928;BME280;60850;52.502;13.426;2024-01-11T02:41:01;102712.50;;;-6.54;100.00
56928;BME280;60850;52.502;13.426;2024-01-11T02:43:29;102715.97;;;-6.42;100.00
56928;BME280;60850;52.502;13.426;2024-01-11T02:45:56;102716.22;;;-6.39;100.00
56928;BME280;60850;52.502;13.426;2024-01-11T02:48:27;102693.75;;;-6.50;100.00
56928;BME280;60850;52.502;13.426;2024-01-11T02:50:55;102684.72;;;-6.32;100.00
56928;BME280;60850;52.502;13.426;2024-01-11T02:53:22;102675.59;;;-6.27;100.00
56928;BME280;60850;52.502;13.426;2024-01-11T02:55:49;102674.25;;;-6.33;100.00
56928;BME280;60850;52.502;13.426;2024-01-11T02:58:16;102674.78;;;-6.26;100.00
56928;BME280;60850;52.502;13.426;2024-01-11T03:00:44;102675.34;;;-6.30;100.00
56928;BME280;60850;52.502;13.426;2024-01-11T03:03:11;102672.53;;;-6.33;100.00
56928;BME280;60850;52.502;13.426;2024-01-11T03:05:38;102686.88;;;-6.26;100.00
56928;BME280;60850;52.502;13.426;2024-01-11T03:08:05;102681.09;;;-6.11;100.00
56928;BME280;60850;52.502;13.426;2024-01-11T03:10:32;102696.00;;;-6.20;100.00
56928;BME280;60850;52.502;13.426;2024-01-11T03:12:59;102696.56;;;-6.12;100.00
56928;BME280;60850;52.502;13.426;2024-01-11T03:15:26;102697.66;;;-6.09;100.00
56928;BME280;60850;52.502;13.426;2024-01-11T03:17:54;102694.81;;;-6.00;100.00
56928;BME280;60850;52.502;13.426;2024-01-11T03:20:21;102689.44;;;-6.15;100.00
56928;BME280;60850;52.502;13.426;2024-01-11T03:22:50;102695.41;;;-6.16;100.00
56928;BME280;60850;52.502;13.426;2024-01-11T03:25:18;102678.38;;;-6.12;100.00
56928;BME280;60850;52.502;13.426;2024-01-11T03:27:45;102682.78;;;-6.23;100.00
56928;BME280;60850;52.502;13.426;2024-01-11T03:30:13;102682.88;;;-6.10;100.00
56928;BME280;60850;52.502;13.426;2024-01-11T03:32:40;102678.13;;;-6.03;100.00
56928;BME280;60850;52.502;13.426;2024-01-11T03:35:08;102677.69;;;-6.10;100.00
56928;BME280;60850;52.502;13.426;2024-01-11T03:37:35;102671.59;;;-5.98;100.00
56928;BME280;60850;52.502;13.426;2024-01-11T03:40:03;102675.97;;;-5.97;100.00
56928;BME280;60850;52.502;13.426;2024-01-11T03:42:30;102667.94;;;-6.00;100.00
56928;BME280;60850;52.502;13.426;2024-01-11T03:44:57;102659.13;;;-5.91;100.00
56928;BME280;60850;52.502;13.426;2024-01-11T03:47:24;102655.00;;;-5.87;100.00
56928;BME280;60850;52.502;13.426;2024-01-11T03:49:51;102636.63;;;-5.90;100.00
56928;BME280;60850;52.502;13.426;2024-01-11T03:52:19;102640.13;;;-5.90;100.00
56928;BME280;60850;52.502;13.426;2024-01-11T03:54:46;102646.56;;;-5.85;100.00
56928;BME280;60850;52.502;13.426;2024-01-11T03:57:14;102646.84;;;-5.80;100.00
56928;BME280;60850;52.502;13.426;2024-01-11T03:59:40;102640.72;;;-5.69;100.00
56928;BME280;60850;52.502;13.426;2024-01-11T04:02:07;102635.31;;;-5.72;100.00
56928;BME280;60850;52.502;13.426;2024-01-11T04:04:34;102632.59;;;-5.73;100.00
56928;BME280;60850;52.502;13.426;2024-01-11T04:07:01;102633.56;;;-5.85;100.00
56928;BME280;60850;52.502;13.426;2024-01-11T04:09:30;102641.00;;;-5.77;100.00
56928;BME280;60850;52.502;13.426;2024-01-11T04:11:57;102639.88;;;-5.81;100.00
56928;BME280;60850;52.502;13.426;2024-01-11T04:14:23;102646.13;;;-5.66;100.00
56928;BME280;60850;52.502;13.426;2024-01-11T04:16:50;102628.97;;;-5.64;100.00
56928;BME280;60850;52.502;13.426;2024-01-11T04:19:18;102629.72;;;-5.65;100.00
56928;BME280;60850;52.502;13.426;2024-01-11T04:21:45;102615.59;;;-5.57;100.00
56928;BME280;60850;52.502;13.426;2024-01-11T04:24:12;102629.69;;;-5.53;100.00
56928;BME280;60850;52.502;13.426;2024-01-11T04:26:40;102637.25;;;-5.31;100.00
56928;BME280;60850;52.502;13.426;2024-01-11T04:29:07;102642.06;;;-5.24;100.00
56928;BME280;60850;52.502;13.426;2024-01-11T04:31:34;102650.47;;;-5.28;100.00
56928;BME280;60850;52.502;13.426;2024-01-11T04:34:01;102650.84;;;-5.35;100.00
56928;BME280;60850;52.502;13.426;2024-01-11T04:36:28;102639.75;;;-5.33;100.00
56928;BME280;60850;52.502;13.426;2024-01-11T04:38:55;102638.28;;;-5.16;100.00
56928;BME280;60850;52.502;13.426;2024-01-11T04:41:22;102638.69;;;-5.10;100.00
56928;BME280;60850;52.502;13.426;2024-01-11T04:43:50;102659.91;;;-5.04;100.00
56928;BME280;60850;52.502;13.426;2024-01-11T04:46:18;102651.16;;;-4.92;100.00
56928;BME280;60850;52.502;13.426;2024-01-11T04:48:46;102657.25;;;-4.92;100.00
56928;BME280;60850;52.502;13.426;2024-01-11T04:51:15;102635.91;;;-4.86;100.00
56928;BME280;60850;52.502;13.426;2024-01-11T04:53:42;102618.41;;;-4.89;100.00
56928;BME280;60850;52.502;13.426;2024-01-11T04:56:10;102623.72;;;-4.74;100.00
56928;BME280;60850;52.502;13.426;2024-01-11T04:58:41;102629.34;;;-4.68;100.00
56928;BME280;60850;52.502;13.426;2024-01-11T05:01:13;102608.13;;;-4.61;100.00
56928;BME280;60850;52.502;13.426;2024-01-11T05:03:40;102599.72;;;-4.57;100.00
56928;BME280;60850;52.502;13.426;2024-01-11T05:06:07;102599.50;;;-4.60;100.00
56928;BME280;60850;52.502;13.426;2024-01-11T05:08:34;102566.69;;;-4.58;100.00
56928;BME280;60850;52.502;13.426;2024-01-11T05:11:01;102581.00;;;-4.64;100.00
56928;BME280;60850;52.502;13.426;2024-01-11T05:13:28;102611.53;;;-4.49;100.00
56928;BME280;60850;52.502;13.426;2024-01-11T05:15:55;102623.72;;;-4.34;100.00
56928;BME280;60850;52.502;13.426;2024-01-11T05:18:23;102618.28;;;-4.37;100.00
56928;BME280;60850;52.502;13.426;2024-01-11T05:20:50;102602.09;;;-4.33;100.00
56928;BME280;60850;52.502;13.426;2024-01-11T05:23:17;102581.50;;;-4.44;100.00
56928;BME280;60850;52.502;13.426;2024-01-11T05:25:44;102599.16;;;-4.38;100.00
56928;BME280;60850;52.502;13.426;2024-01-11T05:28:10;102610.06;;;-4.30;100.00
56928;BME280;60850;52.502;13.426;2024-01-11T05:30:37;102611.75;;;-4.18;100.00
56928;BME280;60850;52.502;13.426;2024-01-11T05:33:04;102624.03;;;-4.02;100.00
56928;BME280;60850;52.502;13.426;2024-01-11T05:35:33;102604.38;;;-3.97;100.00
56928;BME280;60850;52.502;13.426;2024-01-11T05:37:59;102600.16;;;-3.95;100.00
56928;BME280;60850;52.502;13.426;2024-01-11T05:40:27;102592.78;;;-4.02;100.00
56928;BME280;60850;52.502;13.426;2024-01-11T05:42:54;102598.19;;;-3.99;100.00
56928;BME280;60850;52.502;13.426;2024-01-11T05:45:21;102600.03;;;-3.83;100.00
56928;BME280;60850;52.502;13.426;2024-01-11T05:47:48;102580.47;;;-3.76;100.00
56928;BME280;60850;52.502;13.426;2024-01-11T05:50:15;102580.28;;;-3.79;100.00
56928;BME280;60850;52.502;13.426;2024-01-11T05:52:43;102579.09;;;-3.84;100.00
56928;BME280;60850;52.502;13.426;2024-01-11T05:55:10;102582.78;;;-3.81;100.00
56928;BME280;60850;52.502;13.426;2024-01-11T05:57:37;102574.44;;;-3.75;100.00
56928;BME280;60850;52.502;13.426;2024-01-11T06:00:05;102579.13;;;-3.70;100.00
56928;BME280;60850;52.502;13.426;2024-01-11T06:02:32;102589.63;;;-3.68;100.00
56928;BME280;60850;52.502;13.426;2024-01-11T06:04:59;102600.97;;;-3.68;100.00
56928;BME280;60850;52.502;13.426;2024-01-11T06:07:26;102609.44;;;-3.57;100.00
56928;BME280;60850;52.502;13.426;2024-01-11T06:09:55;102607.53;;;-3.60;100.00
56928;BME280;60850;52.502;13.426;2024-01-11T06:12:22;102606.19;;;-3.53;100.00
56928;BME280;60850;52.502;13.426;2024-01-11T06:14:49;102604.41;;;-3.54;100.00
56928;BME280;60850;52.502;13.426;2024-01-11T06:17:15;102585.53;;;-3.65;100.00
56928;BME280;60850;52.502;13.426;2024-01-11T06:19:42;102576.97;;;-3.62;100.00
56928;BME280;60850;52.502;13.426;2024-01-11T06:22:09;102567.75;;;-3.57;100.00
56928;BME280;60850;52.502;13.426;2024-01-11T06:24:36;102569.38;;;-3.59;100.00
56928;BME280;60850;52.502;13.426;2024-01-11T06:27:05;102589.41;;;-3.43;100.00
56928;BME280;60850;52.502;13.426;2024-01-11T06:29:32;102581.31;;;-3.33;100.00
56928;BME280;60850;52.502;13.426;2024-01-11T06:31:58;102600.59;;;-3.31;100.00
56928;BME280;60850;52.502;13.426;2024-01-11T06:34:25;102589.44;;;-3.28;100.00
56928;BME280;60850;52.502;13.426;2024-01-11T06:36:53;102590.78;;;-3.35;100.00
56928;BME280;60850;52.502;13.426;2024-01-11T06:39:20;102595.63;;;-3.26;100.00
56928;BME280;60850;52.502;13.426;2024-01-11T06:41:47;102584.31;;;-3.27;100.00
56928;BME280;60850;52.502;13.426;2024-01-11T06:44:16;102579.44;;;-3.36;100.00
56928;BME280;60850;52.502;13.426;2024-01-11T06:46:43;102571.72;;;-3.34;100.00
56928;BME280;60850;52.502;13.426;2024-01-11T06:49:10;102566.94;;;-3.26;100.00
56928;BME280;60850;52.502;13.426;2024-01-11T06:51:37;102566.31;;;-3.22;100.00
56928;BME280;60850;52.502;13.426;2024-01-11T06:54:05;102564.25;;;-3.28;100.00
56928;BME280;60850;52.502;13.426;2024-01-11T06:56:31;102562.69;;;-3.24;100.00
56928;BME280;60850;52.502;13.426;2024-01-11T06:58:58;102559.19;;;-3.25;100.00
56928;BME280;60850;52.502;13.426;2024-01-11T07:01:27;102559.56;;;-3.19;100.00
56928;BME280;60850;52.502;13.426;2024-01-11T07:03:54;102563.72;;;-3.08;100.00
56928;BME280;60850;52.502;13.426;2024-01-11T07:06:21;102551.19;;;-3.13;100.00
56928;BME280;60850;52.502;13.426;2024-01-11T07:08:48;102553.19;;;-3.09;100.00
56928;BME280;60850;52.502;13.426;2024-01-11T07:11:15;102545.81;;;-3.16;100.00
56928;BME280;60850;52.502;13.426;2024-01-11T07:13:42;102553.56;;;-3.03;100.00
56928;BME280;60850;52.502;13.426;2024-01-11T07:16:09;102571.00;;;-3.02;100.00
56928;BME280;60850;52.502;13.426;2024-01-11T07:18:37;102571.91;;;-3.01;100.00
56928;BME280;60850;52.502;13.426;2024-01-11T07:21:04;102550.03;;;-2.89;100.00
56928;BME280;60850;52.502;13.426;2024-01-11T07:23:31;102563.59;;;-2.94;100.00
56928;BME280;60850;52.502;13.426;2024-01-11T07:25:58;102562.78;;;-2.93;100.00
56928;BME280;60850;52.502;13.426;2024-01-11T07:28:25;102546.41;;;-2.91;100.00
56928;BME280;60850;52.502;13.426;2024-01-11T07:30:52;102537.44;;;-2.96;100.00
56928;BME280;60850;52.502;13.426;2024-01-11T07:33:19;102546.25;;;-2.94;100.00
56928;BME280;60850;52.502;13.426;2024-01-11T07:35:47;102564.66;;;-2.91;100.00
56928;BME280;60850;52.502;13.426;2024-01-11T07:38:14;102567.09;;;-2.79;100.00
56928;BME280;60850;52.502;13.426;2024-01-11T07:40:41;102563.38;;;-2.83;100.00
56928;BME280;60850;52.502;13.426;2024-01-11T07:43:09;102566.38;;;-2.91;100.00
56928;BME280;60850;52.502;13.426;2024-01-11T07:45:36;102561.78;;;-2.81;100.00
56928;BME280;60850;52.502;13.426;2024-01-11T07:48:03;102559.34;;;-2.78;100.00
56928;BME280;60850;52.502;13.426;2024-01-11T07:50:30;102565.72;;;-2.72;100.00
56928;BME280;60850;52.502;13.426;2024-01-11T07:52:59;102566.44;;;-2.60;100.00
56928;BME280;60850;52.502;13.426;2024-01-11T07:55:26;102561.00;;;-2.63;100.00
56928;BME280;60850;52.502;13.426;2024-01-11T07:57:53;102549.28;;;-2.55;100.00
56928;BME280;60850;52.502;13.426;2024-01-11T08:00:20;102546.16;;;-2.64;100.00
56928;BME280;60850;52.502;13.426;2024-01-11T08:02:47;102536.97;;;-2.58;100.00
56928;BME280;60850;52.502;13.426;2024-01-11T08:05:14;102529.28;;;-2.55;100.00
56928;BME280;60850;52.502;13.426;2024-01-11T08:07:41;102542.59;;;-2.50;100.00
56928;BME280;60850;52.502;13.426;2024-01-11T08:10:10;102555.34;;;-2.40;100.00
56928;BME280;60850;52.502;13.426;2024-01-11T08:12:37;102549.22;;;-2.40;100.00
56928;BME280;60850;52.502;13.426;2024-01-11T08:15:05;102549.50;;;-2.36;100.00
56928;BME280;60850;52.502;13.426;2024-01-11T08:17:32;102545.84;;;-2.39;100.00
56928;BME280;60850;52.502;13.426;2024-01-11T08:19:59;102548.09;;;-2.45;100.00
56928;BME280;60850;52.502;13.426;2024-01-11T08:22:26;102535.59;;;-2.51;100.00
56928;BME280;60850;52.502;13.426;2024-01-11T08:24:53;102546.63;;;-2.40;100.00
56928;BME280;60850;52.502;13.426;2024-01-11T08:27:23;102547.84;;;-2.34;100.00
56928;BME280;60850;52.502;13.426;2024-01-11T08:29:49;102550.47;;;-2.34;100.00
56928;BME280;60850;52.502;13.426;2024-01-11T08:32:16;102556.78;;;-2.30;100.00
56928;BME280;60850;52.502;13.426;2024-01-11T08:34:44;102551.00;;;-2.25;100.00
56928;BME280;60850;52.502;13.426;2024-01-11T08:37:11;102544.19;;;-2.21;100.00
56928;BME280;60850;52.502;13.426;2024-01-11T08:39:38;102534.31;;;-2.27;100.00
56928;BME280;60850;52.502;13.426;2024-01-11T08:42:05;102530.56;;;-2.15;100.00
56928;BME280;60850;52.502;13.426;2024-01-11T08:44:34;102539.22;;;-2.16;100.00
56928;BME280;60850;52.502;13.426;2024-01-11T08:47:03;102538.56;;;-2.12;100.00
56928;BME280;60850;52.502;13.426;2024-01-11T08:49:30;102541.38;;;-2.09;100.00
56928;BME280;60850;52.502;13.426;2024-01-11T08:51:57;102540.34;;;-2.28;100.00
56928;BME280;60850;52.502;13.426;2024-01-11T08:54:24;102540.19;;;-2.31;100.00
56928;BME280;60850;52.502;13.426;2024-01-11T08:56:51;102541.84;;;-2.16;100.00
56928;BME280;60850;52.502;13.426;2024-01-11T08:59:18;102540.13;;;-2.16;100.00
56928;BME280;60850;52.502;13.426;2024-01-11T09:01:46;102532.06;;;-2.04;100.00
56928;BME280;60850;52.502;13.426;2024-01-11T09:04:13;102526.91;;;-2.03;100.00
56928;BME280;60850;52.502;13.426;2024-01-11T09:06:41;102496.78;;;-1.96;100.00
56928;BME280;60850;52.502;13.426;2024-01-11T09:09:07;102496.53;;;-2.01;100.00
56928;BME280;60850;52.502;13.426;2024-01-11T09:11:36;102492.47;;;-1.78;100.00
56928;BME280;60850;52.502;13.426;2024-01-11T09:14:03;102500.50;;;-1.75;100.00
56928;BME280;60850;52.502;13.426;2024-01-11T09:16:30;102504.16;;;-1.71;100.00
56928;BME280;60850;52.502;13.426;2024-01-11T09:18:58;102491.97;;;-1.71;100.00
56928;BME280;60850;52.502;13.426;2024-01-11T09:21:26;102490.75;;;-1.77;100.00
56928;BME280;60850;52.502;13.426;2024-01-11T09:23:53;102495.13;;;-1.94;100.00
56928;BME280;60850;52.502;13.426;2024-01-11T09:26:20;102523.53;;;-1.84;100.00
56928;BME280;60850;52.502;13.426;2024-01-11T09:28:48;102519.84;;;-1.71;100.00
56928;BME280;60850;52.502;13.426;2024-01-11T09:31:15;102520.03;;;-1.68;100.00
56928;BME280;60850;52.502;13.426;2024-01-11T09:33:41;102525.78;;;-1.57;100.00
56928;BME280;60850;52.502;13.426;2024-01-11T09:36:13;102512.63;;;-1.59;100.00
56928;BME280;60850;52.502;13.426;2024-01-11T09:38:39;102507.66;;;-1.54;100.00
56928;BME280;60850;52.502;13.426;2024-01-11T09:41:07;102503.78;;;-1.45;100.00
56928;BME280;60850;52.502;13.426;2024-01-11T09:43:35;102492.03;;;-1.53;100.00
56928;BME280;60850;52.502;13.426;2024-01-11T09:46:03;102513.28;;;-1.47;100.00
56928;BME280;60850;52.502;13.426;2024-01-11T09:48:32;102512.88;;;-1.54;100.00
56928;BME280;60850;52.502;13.426;2024-01-11T09:51:01;102517.63;;;-1.63;100.00
56928;BME280;60850;52.502;13.426;2024-01-11T09:53:32;102518.63;;;-1.78;100.00
56928;BME280;60850;52.502;13.426;2024-01-11T09:55:59;102526.28;;;-1.64;100.00
56928;BME280;60850;52.502;13.426;2024-01-11T09:58:27;102532.69;;;-1.76;100.00
56928;BME280;60850;52.502;13.426;2024-01-11T10:00:55;102546.75;;;-2.06;100.00
56928;BME280;60850;52.502;13.426;2024-01-11T10:03:23;102543.41;;;-2.04;100.00
56928;BME280;60850;52.502;13.426;2024-01-11T10:05:50;102535.47;;;-2.05;100.00
56928;BME280;60850;52.502;13.426;2024-01-11T10:08:21;102533.50;;;-1.93;100.00
56928;BME280;60850;52.502;13.426;2024-01-11T10:10:50;102530.59;;;-1.83;100.00
56928;BME280;60850;52.502;13.426;2024-01-11T10:13:17;102521.16;;;-1.79;100.00
56928;BME280;60850;52.502;13.426;2024-01-11T10:15:45;102515.50;;;-1.71;100.00
56928;BME280;60850;52.502;13.426;2024-01-11T10:18:12;102517.88;;;-1.59;100.00
56928;BME280;60850;52.502;13.426;2024-01-11T10:20:39;102523.34;;;-1.54;100.00
56928;BME280;60850;52.502;13.426;2024-01-11T10:23:06;102521.44;;;-1.57;100.00
56928;BME280;60850;52.502;13.426;2024-01-11T10:25:35;102506.84;;;-1.53;100.00
56928;BME280;60850;52.502;13.426;2024-01-11T10:28:03;102488.16;;;-1.43;100.00
56928;BME280;60850;52.502;13.426;2024-01-11T10:30:33;102479.47;;;-1.42;100.00
56928;BME280;60850;52.502;13.426;2024-01-11T10:33:00;102482.09;;;-1.42;100.00
56928;BME280;60850;52.502;13.426;2024-01-11T10:35:30;102484.94;;;-1.38;100.00
56928;BME280;60850;52.502;13.426;2024-01-11T10:37:57;102482.34;;;-1.38;100.00
56928;BME280;60850;52.502;13.426;2024-01-11T10:40:25;102483.59;;;-1.47;100.00
56928;BME280;60850;52.502;13.426;2024-01-11T10:42:52;102482.78;;;-1.46;100.00
56928;BME280;60850;52.502;13.426;2024-01-11T10:45:25;102490.03;;;-1.41;100.00
56928;BME280;60850;52.502;13.426;2024-01-11T10:47:53;102491.22;;;-1.34;100.00
56928;BME280;60850;52.502;13.426;2024-01-11T10:50:25;102509.25;;;-1.40;100.00
56928;BME280;60850;52.502;13.426;2024-01-11T10:53:02;102502.00;;;-1.28;100.00
56928;BME280;60850;52.502;13.426;2024-01-11T10:55:32;102498.41;;;-1.30;100.00
56928;BME280;60850;52.502;13.426;2024-01-11T10:58:00;102489.91;;;-1.26;100.00
56928;BME280;60850;52.502;13.426;2024-01-11T11:00:30;102487.38;;;-1.24;100.00
56928;BME280;60850;52.502;13.426;2024-01-11T11:02:59;102487.59;;;-1.20;100.00
56928;BME280;60850;52.502;13.426;2024-01-11T11:05:28;102484.16;;;-1.19;100.00
56928;BME280;60850;52.502;13.426;2024-01-11T11:07:55;102475.44;;;-1.35;100.00
56928;BME280;60850;52.502;13.426;2024-01-11T11:10:24;102473.72;;;-1.35;100.00
56928;BME280;60850;52.502;13.426;2024-01-11T11:12:54;102474.81;;;-1.31;100.00
56928;BME280;60850;52.502;13.426;2024-01-11T11:15:23;102476.00;;;-1.25;100.00
56928;BME280;60850;52.502;13.426;2024-01-11T11:17:51;102482.13;;;-1.24;100.00
56928;BME280;60850;52.502;13.426;2024-01-11T11:20:19;102491.22;;;-1.34;100.00
56928;BME280;60850;52.502;13.426;2024-01-11T11:22:48;102502.00;;;-1.28;100.00
56928;BME280;60850;52.502;13.426;2024-01-11T11:25:30;102499.31;;;-1.47;100.00
56928;BME280;60850;52.502;13.426;2024-01-11T11:27:58;102491.97;;;-1.36;100.00
56928;BME280;60850;52.502;13.426;2024-01-11T11:30:28;102483.84;;;-1.25;100.00
56928;BME280;60850;52.502;13.426;2024-01-11T11:32:56;102497.91;;;-1.23;100.00
56928;BME280;60850;52.502;13.426;2024-01-11T11:35:23;102505.94;;;-1.36;100.00
56928;BME280;60850;52.502;13.426;2024-01-11T11:37:55;102520.81;;;-1.35;100.00
56928;BME280;60850;52.502;13.426;2024-01-11T11:40:36;102521.81;;;-1.33;100.00
56928;BME280;60850;52.502;13.426;2024-01-11T11:43:05;102519.66;;;-1.24;100.00
56928;BME280;60850;52.502;13.426;2024-01-11T11:45:35;102520.09;;;-1.32;100.00
56928;BME280;60850;52.502;13.426;2024-01-11T11:51:11;102489.16;;;-1.05;100.00
56928;BME280;60850;52.502;13.426;2024-01-11T11:53:38;102489.69;;;-1.13;100.00
56928;BME280;60850;52.502;13.426;2024-01-11T11:56:07;102486.44;;;-1.07;100.00
56928;BME280;60850;52.502;13.426;2024-01-11T11:58:35;102498.28;;;-0.97;100.00
56928;BME280;60850;52.502;13.426;2024-01-11T12:01:03;102502.91;;;-0.92;100.00
56928;BME280;60850;52.502;13.426;2024-01-11T12:03:32;102490.56;;;-0.94;100.00
56928;BME280;60850;52.502;13.426;2024-01-11T12:06:01;102478.75;;;-0.86;100.00
56928;BME280;60850;52.502;13.426;2024-01-11T12:08:28;102480.69;;;-0.82;100.00
56928;BME280;60850;52.502;13.426;2024-01-11T12:10:56;102477.91;;;-0.85;100.00
56928;BME280;60850;52.502;13.426;2024-01-11T12:13:24;102475.47;;;-0.82;100.00
56928;BME280;60850;52.502;13.426;2024-01-11T12:15:51;102478.38;;;-0.76;100.00
56928;BME280;60850;52.502;13.426;2024-01-11T12:18:18;102483.66;;;-0.74;100.00
56928;BME280;60850;52.502;13.426;2024-01-11T12:20:47;102488.69;;;-0.79;100.00
56928;BME280;60850;52.502;13.426;2024-01-11T12:23:15;102485.69;;;-0.69;100.00
56928;BME280;60850;52.502;13.426;2024-01-11T12:25:43;102486.22;;;-0.76;100.00
56928;BME280;60850;52.502;13.426;2024-01-11T12:28:10;102486.53;;;-0.70;100.00
56928;BME280;60850;52.502;13.426;2024-01-11T12:30:38;102483.25;;;-0.64;100.00
56928;BME280;60850;52.502;13.426;2024-01-11T12:33:05;102478.50;;;-0.73;100.00
56928;BME280;60850;52.502;13.426;2024-01-11T12:35:32;102469.09;;;-0.69;100.00